Estación Meteorológica Peña el Pijo (Robertgarden) [ 04/23/17 09:55:50 CEST ]

Fecha Hora Presion(HPa) Temp (°C) Humedad % Rocio (°C) Viento ( m/s) Direccion Lluvia 1Hora(mm) Lluvia 24H(mm) LLuvia Total(mm)
2017-Apr-17 01:01:54 1012.100 11.8 76 7.7         1357.67
2017-Apr-17 02:01:55 1011.900 10.6 78 6.9         1357.67
2017-Apr-17 03:03:10 1011.400 9.8 80 6.5         1357.67
2017-Apr-17 04:01:43 1010.700 8.7 80 5.4         1357.67
2017-Apr-17 05:02:04 1010.300 8.6 81 5.5         1357.67
2017-Apr-17 06:01:57 1010.000 8.9 82 6.0         1357.67
2017-Apr-17 07:01:46 1010.200 8.9 82 6.0         1357.67
2017-Apr-17 08:01:46 1010.500 9.0 82 6.1         1357.67
2017-Apr-17 09:01:38 1010.600 12.7 81 9.5         1357.67
2017-Apr-17 10:01:43 1010.400 19.1 56 10.1         1357.67
2017-Apr-17 11:01:41 1010.100 24.8 39 9.9         1357.67
2017-Apr-17 12:01:42 1010.200 24.4 38 9.1 2.9 S     1357.67
2017-Apr-17 13:01:44 1009.700 22.8 40 8.5         1357.67
2017-Apr-17 14:01:36 1009.400 23.8 43 10.4         1357.67
2017-Apr-17 15:01:50 1009.200 22.6 45 9.6 1.0 S     1357.67
2017-Apr-17 16:01:19 1008.900 22.7 44 9.8 2.7 ESE     1357.67
2017-Apr-17 17:02:03 1008.400 25.8 36 9.5         1357.67
2017-Apr-17 18:01:43 1008.200 21.8 44 8.9 1.4 E     1357.67
2017-Apr-17 19:01:43 1008.200 21.8 42 8.3         1357.67
2017-Apr-17 20:01:39 1008.400 19.9 44 7.2         1357.67
2017-Apr-17 21:01:50 1009.000 17.5 49 6.6         1357.67
2017-Apr-17 22:01:41 1009.600 14.1 57 5.7         1357.67
2017-Apr-17 23:02:01 1010.200 12.1 62 5.0         1357.67

Temperatura Máxima:25°    Temperatura Mínima:
Presión Máxima:1012.100 Hpa    Presión Mínima:1008.200 Hpa


Volver